Time;durP1;ratioP1;P1;durP2;ratioP2;P2;SDS_P1;SDS_P2;PMS_P1;PMS_P2;Temp;Humidity;BMP_temperature;BMP_pressure;BME280_temperature;BME280_humidity;BME280_pressure;Samples;Min_cycle;Max_cycle;Signal;HPM_P1;HPM_P2
2022/12/06 00:01:14;;;;;;;5.50;3.40;;;;;;;;;;2095903;28;20020;-72
2022/12/06 00:02:33;;;;;;;3.60;3.30;;;;;;;;;;2096277;28;20040;-73
2022/12/06 00:03:53;;;;;;;3.38;3.13;;;;;;;;;;2093258;28;20586;-73
2022/12/06 00:05:12;;;;;;;3.00;2.80;;;;;;;;;;2094096;28;20062;-72
2022/12/06 00:06:35;;;;;;;4.82;3.10;;;;;;;;;;2094720;28;20508;-72
2022/12/06 00:07:54;;;;;;;3.45;2.92;;;;;;;;;;2092773;28;20040;-73
2022/12/06 00:09:18;;;;;;;2.88;2.67;;;;;;;;;;2093781;28;20696;-74
2022/12/06 00:10:37;;;;;;;3.70;2.60;;;;;;;;;;2093622;28;20033;-73
2022/12/06 00:11:57;;;;;;;2.83;2.58;;;;;;;;;;2094315;28;20477;-73
2022/12/06 00:13:16;;;;;;;2.47;2.28;;;;;;;;;;2094166;28;20040;-73
2022/12/06 00:14:35;;;;;;;2.42;2.20;;;;;;;;;;2093248;28;20029;-72
2022/12/06 00:15:54;;;;;;;3.70;2.20;;;;;;;;;;2092166;28;20048;-73
2022/12/06 00:17:14;;;;;;;2.60;2.40;;;;;;;;;;2096228;28;20044;-73
2022/12/06 00:18:34;;;;;;;3.22;2.33;;;;;;;;;;2094915;28;20512;-73
2022/12/06 00:19:53;;;;;;;2.28;2.10;;;;;;;;;;2093370;28;20037;-73
2022/12/06 00:21:12;;;;;;;5.35;1.95;;;;;;;;;;2094814;28;20413;-72
2022/12/06 00:22:31;;;;;;;2.35;1.95;;;;;;;;;;2093683;28;20029;-73
2022/12/06 00:23:50;;;;;;;8.85;1.63;;;;;;;;;;2093400;28;20041;-73
2022/12/06 00:25:09;;;;;;;2.03;1.80;;;;;;;;;;2094945;28;20025;-73
2022/12/06 00:26:29;;;;;;;1.73;1.63;;;;;;;;;;2092171;28;20017;-73
2022/12/06 00:27:49;;;;;;;2.22;2.03;;;;;;;;;;2094465;28;20032;-73
2022/12/06 00:29:13;;;;;;;1.90;1.80;;;;;;;;;;2094507;28;20111;-73
2022/12/06 00:30:32;;;;;;;2.00;1.65;;;;;;;;;;2093764;28;20037;-73
2022/12/06 00:31:50;;;;;;;2.92;1.90;;;;;;;;;;2095169;28;20025;-72
2022/12/06 00:33:09;;;;;;;1.70;1.60;;;;;;;;;;2096140;28;20021;-73
2022/12/06 00:34:28;;;;;;;2.60;2.13;;;;;;;;;;2092757;28;20033;-73
2022/12/06 00:35:53;;;;;;;2.05;1.73;;;;;;;;;;2093616;28;20032;-73
2022/12/06 00:37:12;;;;;;;2.13;1.92;;;;;;;;;;2096210;28;20481;-72
2022/12/06 00:38:33;;;;;;;4.05;1.90;;;;;;;;;;2094301;28;20036;-73
2022/12/06 00:39:52;;;;;;;3.17;2.05;;;;;;;;;;2092506;28;20028;-73
2022/12/06 00:41:12;;;;;;;2.25;2.05;;;;;;;;;;2091843;28;20710;-73
2022/12/06 00:42:31;;;;;;;1.50;1.40;;;;;;;;;;2092948;28;20032;-72
2022/12/06 00:43:50;;;;;;;5.50;2.03;;;;;;;;;;2095839;28;20024;-73
2022/12/06 00:45:09;;;;;;;2.53;2.25;;;;;;;;;;2094449;28;20032;-73
2022/12/06 00:46:28;;;;;;;8.63;2.20;;;;;;;;;;2096197;28;20036;-73
2022/12/06 00:47:47;;;;;;;2.05;1.85;;;;;;;;;;2092747;28;20025;-72
2022/12/06 00:49:07;;;;;;;2.47;2.10;;;;;;;;;;2094819;28;20028;-72
2022/12/06 00:50:26;;;;;;;2.35;2.25;;;;;;;;;;2095194;28;20025;-73
2022/12/06 00:51:44;;;;;;;2.50;2.25;;;;;;;;;;2095418;28;20060;-73
2022/12/06 00:53:03;;;;;;;3.17;2.55;;;;;;;;;;2095820;28;20040;-72
2022/12/06 00:54:22;;;;;;;2.97;2.28;;;;;;;;;;2095524;28;20036;-73
2022/12/06 00:55:42;;;;;;;3.78;2.95;;;;;;;;;;2096065;28;20028;-73
2022/12/06 00:57:01;;;;;;;2.92;2.72;;;;;;;;;;2093489;28;20036;-73
2022/12/06 00:58:20;;;;;;;2.60;2.30;;;;;;;;;;2092820;28;20036;-73
2022/12/06 00:59:40;;;;;;;2.50;2.30;;;;;;;;;;2094322;28;20424;-73
2022/12/06 01:01:09;;;;;;;2.50;2.30;;;;;;;;;;2095746;28;20033;-74
2022/12/06 01:02:28;;;;;;;3.40;3.08;;;;;;;;;;2097821;28;20021;-73
2022/12/06 01:03:50;;;;;;;3.25;2.58;;;;;;;;;;2096320;28;20369;-73
2022/12/06 01:05:09;;;;;;;2.95;2.72;;;;;;;;;;2097965;28;20028;-73
2022/12/06 01:06:30;;;;;;;3.13;2.42;;;;;;;;;;2098121;28;20024;-73
2022/12/06 01:07:49;;;;;;;3.45;2.90;;;;;;;;;;2095509;28;20489;-73
2022/12/06 01:09:09;;;;;;;2.95;2.75;;;;;;;;;;2097197;28;20119;-73
2022/12/06 01:10:27;;;;;;;5.53;3.15;;;;;;;;;;2096577;28;20115;-73
2022/12/06 01:11:46;;;;;;;3.38;3.05;;;;;;;;;;2097217;28;20032;-73
2022/12/06 01:13:05;;;;;;;4.20;3.25;;;;;;;;;;2097823;28;20025;-73
2022/12/06 01:14:24;;;;;;;4.00;3.53;;;;;;;;;;2093365;28;20040;-73
2022/12/06 01:15:43;;;;;;;2.40;2.20;;;;;;;;;;2094380;28;20084;-73
2022/12/06 01:17:02;;;;;;;3.15;2.63;;;;;;;;;;2097244;28;20040;-73
2022/12/06 01:18:21;;;;;;;6.50;3.00;;;;;;;;;;2097701;28;20143;-73
2022/12/06 01:19:40;;;;;;;2.90;2.60;;;;;;;;;;2091287;28;20103;-73
2022/12/06 01:21:06;;;;;;;3.65;3.30;;;;;;;;;;2096677;28;20451;-73
2022/12/06 01:22:25;;;;;;;3.80;3.13;;;;;;;;;;2097405;28;20028;-74
2022/12/06 01:23:44;;;;;;;3.33;3.03;;;;;;;;;;2096628;28;20025;-74
2022/12/06 01:25:03;;;;;;;6.25;3.08;;;;;;;;;;2096897;28;20041;-73
2022/12/06 01:26:23;;;;;;;3.05;2.83;;;;;;;;;;2093304;28;20112;-74
2022/12/06 01:27:42;;;;;;;2.95;2.72;;;;;;;;;;2089480;28;20083;-74
2022/12/06 01:29:01;;;;;;;5.32;2.95;;;;;;;;;;2095901;28;20044;-73
2022/12/06 01:30:20;;;;;;;4.80;3.35;;;;;;;;;;2093711;28;20028;-74
2022/12/06 01:31:39;;;;;;;3.58;3.28;;;;;;;;;;2097658;28;20032;-73
2022/12/06 01:32:57;;;;;;;3.83;3.42;;;;;;;;;;2097523;28;20036;-73
2022/12/06 01:34:16;;;;;;;3.47;3.17;;;;;;;;;;2095533;28;20037;-73
2022/12/06 01:35:40;;;;;;;3.35;3.05;;;;;;;;;;2097317;28;20033;-72
2022/12/06 01:36:58;;;;;;;;;;;;;;;;;;2097447;28;20512;-73
2022/12/06 01:38:17;;;;;;;3.58;3.28;;;;;;;;;;2096816;28;20352;-73
2022/12/06 01:39:37;;;;;;;2.97;2.78;;;;;;;;;;2094367;28;20033;-73
2022/12/06 01:40:55;;;;;;;4.93;3.05;;;;;;;;;;2097539;28;20060;-73
2022/12/06 01:42:15;;;;;;;4.18;3.78;;;;;;;;;;2097002;28;20020;-74
2022/12/06 01:43:36;;;;;;;4.00;3.58;;;;;;;;;;2094077;28;20029;-73
2022/12/06 01:44:56;;;;;;;3.00;2.80;;;;;;;;;;2095557;28;20408;-74
2022/12/06 01:46:30;;;;;;;3.25;2.90;;;;;;;;;;2096766;28;20020;-73
2022/12/06 01:47:49;;;;;;;3.40;3.10;;;;;;;;;;2096537;28;20060;-73
2022/12/06 01:49:16;;;;;;;3.42;2.80;;;;;;;;;;2097396;28;20036;-73
2022/12/06 01:50:38;;;;;;;3.20;2.80;;;;;;;;;;2095996;28;20040;-73
2022/12/06 01:51:59;;;;;;;4.40;3.42;;;;;;;;;;2094610;28;21350;-73
2022/12/06 01:53:19;;;;;;;4.28;3.70;;;;;;;;;;2094701;28;20020;-73
2022/12/06 01:54:39;;;;;;;4.18;3.70;;;;;;;;;;2096753;28;20036;-73
2022/12/06 01:55:57;;;;;;;3.45;2.97;;;;;;;;;;2096555;28;20031;-72
2022/12/06 01:57:16;;;;;;;4.85;3.80;;;;;;;;;;2095138;28;20032;-73
2022/12/06 01:58:36;;;;;;;4.22;3.67;;;;;;;;;;2096996;28;20020;-73
2022/12/06 01:59:55;;;;;;;3.60;3.30;;;;;;;;;;2095482;28;20078;-72
2022/12/06 02:01:14;;;;;;;5.18;3.78;;;;;;;;;;2098560;28;20056;-73
2022/12/06 02:02:33;;;;;;;4.13;3.78;;;;;;;;;;2096266;28;20024;-73
2022/12/06 02:03:54;;;;;;;4.28;3.70;;;;;;;;;;2097086;28;20029;-73
2022/12/06 02:05:14;;;;;;;4.45;3.85;;;;;;;;;;2096687;28;20029;-73
2022/12/06 02:06:34;;;;;;;4.53;3.70;;;;;;;;;;2098123;28;20107;-74
2022/12/06 02:07:53;;;;;;;4.03;3.72;;;;;;;;;;2096360;28;20041;-73
2022/12/06 02:09:12;;;;;;;4.03;3.63;;;;;;;;;;2096020;28;20488;-73
2022/12/06 02:10:31;;;;;;;5.03;3.80;;;;;;;;;;2093871;28;20482;-73
2022/12/06 02:11:50;;;;;;;4.00;3.70;;;;;;;;;;2096283;28;20032;-72
2022/12/06 02:13:10;;;;;;;3.92;3.60;;;;;;;;;;2097191;28;20037;-73
2022/12/06 02:14:30;;;;;;;4.05;3.75;;;;;;;;;;2091991;28;20033;-73
2022/12/06 02:15:49;;;;;;;4.82;4.30;;;;;;;;;;2094369;28;20053;-74
2022/12/06 02:17:08;;;;;;;4.60;4.13;;;;;;;;;;2093434;28;20028;-74
2022/12/06 02:18:33;;;;;;;4.53;4.13;;;;;;;;;;2093042;28;20867;-73
2022/12/06 02:19:52;;;;;;;5.07;4.07;;;;;;;;;;2096861;28;20469;-74
2022/12/06 02:21:20;;;;;;;6.55;4.35;;;;;;;;;;2092804;28;20028;-73
2022/12/06 02:22:42;;;;;;;4.53;4.07;;;;;;;;;;2097311;28;20393;-73
2022/12/06 02:24:20;;;;;;;4.55;4.15;;;;;;;;;;2096485;28;20025;-72
2022/12/06 02:25:45;;;;;;;5.28;4.78;;;;;;;;;;2094217;28;20021;-73
2022/12/06 02:27:10;;;;;;;5.00;4.50;;;;;;;;;;2097632;28;20025;-73
2022/12/06 02:28:35;;;;;;;4.72;4.35;;;;;;;;;;2096419;28;20825;-74
2022/12/06 02:30:06;;;;;;;5.05;4.53;;;;;;;;;;2096849;28;20111;-72
2022/12/06 02:31:58;;;;;;;5.85;4.72;;;;;;;;;;2096694;28;20393;-72
2022/12/06 02:33:25;;;;;;;6.88;4.88;;;;;;;;;;2088996;28;20026;-73
2022/12/06 02:34:50;;;;;;;5.93;4.90;;;;;;;;;;2097153;28;20104;-74
2022/12/06 02:36:15;;;;;;;5.57;4.53;;;;;;;;;;2096616;28;20107;-73
2022/12/06 02:37:48;;;;;;;5.88;4.78;;;;;;;;;;2092828;28;20033;-73
2022/12/06 02:39:10;;;;;;;5.53;4.75;;;;;;;;;;2094643;28;20021;-73
2022/12/06 02:40:31;;;;;;;5.32;4.90;;;;;;;;;;2095261;28;20032;-72
2022/12/06 02:42:04;;;;;;;5.25;4.75;;;;;;;;;;2093260;28;20134;-74
2022/12/06 02:43:36;;;;;;;6.20;5.60;;;;;;;;;;2096527;28;20033;-74
2022/12/06 02:44:58;;;;;;;5.30;4.80;;;;;;;;;;2096969;28;20029;-74
2022/12/06 02:46:18;;;;;;;5.13;4.63;;;;;;;;;;2094279;28;20033;-75
2022/12/06 02:47:37;;;;;;;5.50;4.72;;;;;;;;;;2095693;28;20016;-75
2022/12/06 02:48:58;;;;;;;5.57;5.07;;;;;;;;;;2097441;28;20029;-75
2022/12/06 02:50:19;;;;;;;7.30;6.60;;;;;;;;;;2093261;28;20377;-75
2022/12/06 02:51:38;;;;;;;6.82;5.68;;;;;;;;;;2095350;28;20021;-74
2022/12/06 02:52:59;;;;;;;6.35;5.45;;;;;;;;;;2097349;28;20056;-75
2022/12/06 02:54:17;;;;;;;5.40;4.97;;;;;;;;;;2096779;28;20476;-75
2022/12/06 02:55:37;;;;;;;6.88;5.82;;;;;;;;;;2094848;28;20123;-73
2022/12/06 02:56:56;;;;;;;5.57;4.93;;;;;;;;;;2095466;28;20040;-74
2022/12/06 02:58:15;;;;;;;5.88;5.20;;;;;;;;;;2095092;28;20480;-75
2022/12/06 02:59:33;;;;;;;5.47;4.75;;;;;;;;;;2096494;28;20033;-74
2022/12/06 03:00:57;;;;;;;6.30;5.32;;;;;;;;;;2093790;28;20212;-74
2022/12/06 03:02:16;;;;;;;4.95;4.55;;;;;;;;;;2093799;28;20024;-74
2022/12/06 03:03:45;;;;;;;5.32;4.80;;;;;;;;;;2095263;28;20034;-75
2022/12/06 03:05:09;;;;;;;5.68;5.18;;;;;;;;;;2097840;28;20041;-74
2022/12/06 03:06:33;;;;;;;5.70;5.10;;;;;;;;;;2096590;28;20036;-74
2022/12/06 03:07:52;;;;;;;5.18;4.68;;;;;;;;;;2096078;28;20377;-74
2022/12/06 03:09:11;;;;;;;5.57;5.13;;;;;;;;;;2096830;28;20488;-74
2022/12/06 03:10:50;;;;;;;5.57;5.07;;;;;;;;;;2096253;28;20036;-73
2022/12/06 03:12:21;;;;;;;5.22;4.80;;;;;;;;;;2093344;28;20041;-74
2022/12/06 03:13:52;;;;;;;5.70;5.30;;;;;;;;;;2096338;28;20033;-74
2022/12/06 03:15:38;;;;;;;5.47;5.07;;;;;;;;;;2095474;28;20443;-74
2022/12/06 03:17:10;;;;;;;6.47;5.57;;;;;;;;;;2091883;28;20120;-74
2022/12/06 03:18:32;;;;;;;6.47;5.87;;;;;;;;;;2097749;28;20032;-75
2022/12/06 03:20:00;;;;;;;5.93;5.43;;;;;;;;;;2090052;28;20263;-75
2022/12/06 03:21:23;;;;;;;6.53;5.25;;;;;;;;;;2095534;28;20594;-74
2022/12/06 03:22:45;;;;;;;5.63;5.13;;;;;;;;;;2097466;28;20036;-75
2022/12/06 03:24:06;;;;;;;5.97;5.30;;;;;;;;;;2095641;28;20091;-76
2022/12/06 03:25:25;;;;;;;7.75;6.13;;;;;;;;;;2097064;28;20037;-75
2022/12/06 03:26:45;;;;;;;6.35;5.75;;;;;;;;;;2104293;28;20024;-75
2022/12/06 03:28:06;;;;;;;6.00;5.40;;;;;;;;;;2099452;28;20124;-75
2022/12/06 03:29:27;;;;;;;7.18;5.80;;;;;;;;;;2096348;28;20116;-74
2022/12/06 03:30:47;;;;;;;6.35;5.75;;;;;;;;;;2090160;28;20329;-74
2022/12/06 03:32:08;;;;;;;6.93;6.22;;;;;;;;;;2093467;28;20123;-75
2022/12/06 03:33:28;;;;;;;7.05;6.32;;;;;;;;;;2093030;28;20036;-73
2022/12/06 03:34:48;;;;;;;7.25;5.80;;;;;;;;;;2096248;28;20601;-73
2022/12/06 03:36:09;;;;;;;7.30;6.45;;;;;;;;;;2094091;28;20075;-74
2022/12/06 03:37:29;;;;;;;6.82;6.22;;;;;;;;;;2095733;28;20032;-75
2022/12/06 03:38:53;;;;;;;7.18;6.40;;;;;;;;;;2097528;28;20040;-75
2022/12/06 03:40:18;;;;;;;6.75;5.97;;;;;;;;;;2090514;28;20104;-75
2022/12/06 03:41:44;;;;;;;7.70;5.93;;;;;;;;;;2094473;28;20025;-74
2022/12/06 03:43:03;;;;;;;6.72;6.00;;;;;;;;;;2097561;28;20072;-75
2022/12/06 03:44:23;;;;;;;7.30;6.38;;;;;;;;;;2095881;28;20021;-74
2022/12/06 03:45:46;;;;;;;7.35;6.18;;;;;;;;;;2095671;28;20025;-74
2022/12/06 03:47:34;;;;;;;7.05;6.15;;;;;;;;;;2096680;28;20028;-75
2022/12/06 03:48:56;;;;;;;7.78;7.03;;;;;;;;;;2092403;28;20037;-74
2022/12/06 03:50:21;;;;;;;8.02;7.07;;;;;;;;;;2092941;28;20077;-75
2022/12/06 03:51:41;;;;;;;7.50;6.75;;;;;;;;;;2094134;28;20056;-75
2022/12/06 03:53:01;;;;;;;9.95;7.47;;;;;;;;;;2096301;28;20030;-75
2022/12/06 03:54:20;;;;;;;8.25;6.82;;;;;;;;;;2096848;28;20032;-75
2022/12/06 03:55:41;;;;;;;8.45;7.55;;;;;;;;;;2095799;28;20028;-74
2022/12/06 03:57:00;;;;;;;7.70;6.90;;;;;;;;;;2096062;28;20524;-75
2022/12/06 03:58:19;;;;;;;8.75;7.40;;;;;;;;;;2095757;28;20048;-75
2022/12/06 03:59:38;;;;;;;7.97;7.25;;;;;;;;;;2094600;28;20090;-72
2022/12/06 04:01:03;;;;;;;8.20;6.95;;;;;;;;;;2095470;28;20534;-73
2022/12/06 04:02:22;;;;;;;9.00;6.55;;;;;;;;;;2095400;28;20021;-73
2022/12/06 04:03:41;;;;;;;8.80;7.40;;;;;;;;;;2095101;28;20028;-74
2022/12/06 04:05:00;;;;;;;8.20;6.55;;;;;;;;;;2096407;28;20492;-73
2022/12/06 04:06:19;;;;;;;8.32;7.25;;;;;;;;;;2095468;28;20028;-73
2022/12/06 04:07:38;;;;;;;7.95;7.13;;;;;;;;;;2093472;28;20032;-73
2022/12/06 04:09:51;;;;;;;8.13;6.82;;;;;;;;;;2094879;28;20028;-73
2022/12/06 04:10:35;;;;;;;7.57;6.63;;;;;;;;;;2093953;28;20119;-73
2022/12/06 04:11:54;;;;;;;10.30;7.18;;;;;;;;;;2095353;28;20032;-74
2022/12/06 04:13:14;;;;;;;7.25;6.45;;;;;;;;;;2096976;28;20033;-73
2022/12/06 04:14:38;;;;;;;8.07;7.28;;;;;;;;;;2093493;28;20037;-73
2022/12/06 04:15:58;;;;;;;9.35;6.78;;;;;;;;;;2094145;28;20139;-73
2022/12/06 04:18:55;;;;;;;7.78;6.97;;;;;;;;;;2097181;28;20029;-73
2022/12/06 04:20:14;;;;;;;7.65;6.85;;;;;;;;;;2094007;28;20534;-73
2022/12/06 04:23:04;;;;;;;9.10;7.15;;;;;;;;;;2095102;28;20489;-73
2022/12/06 04:24:24;;;;;;;8.02;7.20;;;;;;;;;;2094740;28;20072;-74
2022/12/06 04:25:43;;;;;;;7.35;6.75;;;;;;;;;;2095251;28;20030;-73
2022/12/06 04:38:42;;;;;;;9.43;7.28;;;;;;;;;;2093218;28;20044;-73
2022/12/06 04:40:01;;;;;;;7.57;6.63;;;;;;;;;;2089463;28;20500;-73
2022/12/06 04:44:36;;;;;;;9.25;6.68;;;;;;;;;;2093583;28;20032;-72
2022/12/06 04:45:55;;;;;;;7.13;6.43;;;;;;;;;;2090727;28;20033;-72
2022/12/06 04:47:14;;;;;;;9.20;7.13;;;;;;;;;;2095186;28;20488;-72
2022/12/06 04:48:33;;;;;;;9.50;6.90;;;;;;;;;;2093632;28;21815;-72
2022/12/06 04:49:52;;;;;;;8.23;7.28;;;;;;;;;;2092651;28;20037;-72
2022/12/06 04:51:11;;;;;;;8.40;6.07;;;;;;;;;;2093513;28;20036;-73
2022/12/06 04:52:30;;;;;;;6.97;6.28;;;;;;;;;;2094243;28;20032;-72
2022/12/06 04:53:49;;;;;;;7.45;6.65;;;;;;;;;;2093432;28;20040;-73
2022/12/06 04:55:08;;;;;;;9.23;6.90;;;;;;;;;;2091696;28;20033;-72
2022/12/06 04:56:27;;;;;;;6.97;6.28;;;;;;;;;;2093682;28;20029;-72
2022/12/06 04:57:46;;;;;;;6.78;6.07;;;;;;;;;;2093593;28;20028;-73
2022/12/06 04:59:05;;;;;;;6.80;5.78;;;;;;;;;;2094476;28;20500;-74
2022/12/06 05:00:24;;;;;;;5.95;5.45;;;;;;;;;;2091435;28;20032;-72
2022/12/06 05:01:43;;;;;;;6.80;6.07;;;;;;;;;;2094649;28;20381;-74
2022/12/06 05:03:02;;;;;;;5.78;5.28;;;;;;;;;;2092429;28;20546;-73
2022/12/06 05:04:21;;;;;;;5.97;5.47;;;;;;;;;;2093137;28;20115;-74
2022/12/06 05:05:41;;;;;;;6.22;5.63;;;;;;;;;;2101327;28;20446;-73
2022/12/06 05:07:00;;;;;;;6.00;5.40;;;;;;;;;;2097601;28;20037;-73
2022/12/06 05:08:19;;;;;;;6.28;5.68;;;;;;;;;;2093794;28;20036;-73
2022/12/06 05:09:38;;;;;;;6.68;5.72;;;;;;;;;;2093669;28;20032;-72
2022/12/06 05:10:57;;;;;;;5.90;5.35;;;;;;;;;;2091406;28;20029;-72
2022/12/06 05:12:16;;;;;;;6.03;5.43;;;;;;;;;;2092652;28;20444;-72
2022/12/06 05:13:35;;;;;;;7.05;5.70;;;;;;;;;;2091669;28;20033;-72
2022/12/06 05:14:54;;;;;;;6.82;5.65;;;;;;;;;;2090560;28;20049;-72
2022/12/06 05:16:13;;;;;;;7.05;5.90;;;;;;;;;;2093328;28;20044;-72
2022/12/06 05:17:32;;;;;;;7.55;5.88;;;;;;;;;;2092614;28;20032;-72
2022/12/06 05:18:51;;;;;;;6.13;5.60;;;;;;;;;;2092520;28;20119;-72
2022/12/06 05:20:10;;;;;;;8.07;5.65;;;;;;;;;;2092675;28;20041;-72
2022/12/06 05:21:29;;;;;;;7.15;5.53;;;;;;;;;;2091369;28;20715;-72
2022/12/06 05:22:48;;;;;;;5.63;5.13;;;;;;;;;;2093731;28;20040;-72
2022/12/06 05:24:07;;;;;;;5.97;5.38;;;;;;;;;;2092143;28;20040;-72
2022/12/06 05:25:26;;;;;;;5.65;5.15;;;;;;;;;;2092689;28;20029;-72
2022/12/06 05:26:45;;;;;;;6.38;5.10;;;;;;;;;;2093464;28;20024;-72
2022/12/06 05:28:04;;;;;;;5.45;4.93;;;;;;;;;;2089152;28;20036;-72
2022/12/06 05:29:22;;;;;;;6.30;5.63;;;;;;;;;;2091744;28;20419;-71
2022/12/06 05:30:41;;;;;;;5.80;5.30;;;;;;;;;;2092036;28;20966;-71
2022/12/06 05:32:01;;;;;;;6.40;5.35;;;;;;;;;;2093016;28;20041;-71
2022/12/06 05:33:20;;;;;;;5.53;5.03;;;;;;;;;;2092869;28;20037;-71
2022/12/06 05:34:39;;;;;;;5.00;4.40;;;;;;;;;;2093778;28;20045;-71
2022/12/06 05:35:58;;;;;;;6.28;4.47;;;;;;;;;;2093659;28;20052;-71
2022/12/06 05:37:18;;;;;;;6.15;4.80;;;;;;;;;;2093304;28;20033;-72
2022/12/06 05:38:38;;;;;;;5.75;4.85;;;;;;;;;;2092789;28;20025;-72
2022/12/06 05:39:56;;;;;;;6.45;4.78;;;;;;;;;;2093165;28;20048;-71
2022/12/06 05:41:16;;;;;;;5.22;4.72;;;;;;;;;;2092968;28;20600;-72
2022/12/06 05:42:35;;;;;;;5.18;4.78;;;;;;;;;;2092720;28;20068;-71
2022/12/06 05:43:54;;;;;;;6.47;4.13;;;;;;;;;;2093526;28;20404;-71
2022/12/06 05:45:13;;;;;;;6.72;4.45;;;;;;;;;;2091067;28;20033;-71
2022/12/06 05:46:32;;;;;;;6.28;4.80;;;;;;;;;;2092175;28;20104;-72
2022/12/06 05:47:51;;;;;;;7.22;4.68;;;;;;;;;;2092833;28;20029;-72
2022/12/06 05:49:10;;;;;;;8.55;4.35;;;;;;;;;;2093134;28;20048;-73
2022/12/06 05:50:29;;;;;;;5.75;4.53;;;;;;;;;;2094650;28;21000;-72
2022/12/06 05:51:48;;;;;;;4.72;4.30;;;;;;;;;;2093774;28;20036;-72
2022/12/06 05:53:07;;;;;;;6.10;4.63;;;;;;;;;;2093746;28;20025;-73
2022/12/06 05:54:27;;;;;;;4.70;4.00;;;;;;;;;;2092489;28;20514;-76
2022/12/06 05:55:46;;;;;;;4.55;4.10;;;;;;;;;;2094048;28;20044;-74
2022/12/06 05:57:05;;;;;;;5.32;3.92;;;;;;;;;;2094420;28;20037;-73
2022/12/06 05:58:25;;;;;;;5.07;4.20;;;;;;;;;;2093528;28;20033;-72
2022/12/06 05:59:43;;;;;;;4.32;3.92;;;;;;;;;;2093093;28;20061;-76
2022/12/06 06:01:03;;;;;;;5.35;4.40;;;;;;;;;;2094205;28;20032;-73
2022/12/06 06:02:22;;;;;;;4.38;4.00;;;;;;;;;;2093099;28;20028;-74
2022/12/06 06:03:41;;;;;;;5.72;5.10;;;;;;;;;;2091954;28;20028;-73
2022/12/06 06:05:00;;;;;;;4.57;4.18;;;;;;;;;;2094370;28;20107;-75
2022/12/06 06:06:20;;;;;;;4.63;4.13;;;;;;;;;;2093872;28;20028;-75
2022/12/06 06:07:39;;;;;;;4.07;3.78;;;;;;;;;;2094310;28;20446;-73
2022/12/06 06:08:58;;;;;;;4.85;4.03;;;;;;;;;;2093883;28;20050;-74
2022/12/06 06:10:17;;;;;;;6.38;4.05;;;;;;;;;;2094517;28;20397;-73
2022/12/06 06:11:36;;;;;;;6.00;4.20;;;;;;;;;;2093775;28;20036;-77
2022/12/06 06:12:55;;;;;;;3.95;3.63;;;;;;;;;;2094833;28;20040;-74
2022/12/06 06:14:14;;;;;;;4.40;3.97;;;;;;;;;;2093430;28;20036;-74
2022/12/06 06:15:33;;;;;;;4.45;4.00;;;;;;;;;;2091527;28;20131;-75
2022/12/06 06:16:51;;;;;;;3.67;3.38;;;;;;;;;;2091247;28;20037;-73
2022/12/06 06:18:10;;;;;;;4.93;4.45;;;;;;;;;;2092773;28;20067;-75
2022/12/06 06:19:29;;;;;;;7.03;4.50;;;;;;;;;;2093227;28;20024;-76
2022/12/06 06:20:50;;;;;;;4.30;3.83;;;;;;;;;;2093290;28;20036;-77
2022/12/06 06:22:09;;;;;;;4.53;4.03;;;;;;;;;;2094233;28;21324;-71
2022/12/06 06:23:28;;;;;;;4.35;3.88;;;;;;;;;;2093699;28;20820;-75
2022/12/06 06:24:47;;;;;;;4.78;4.05;;;;;;;;;;2094724;28;20041;-72
2022/12/06 06:26:10;;;;;;;4.10;3.70;;;;;;;;;;2093020;28;20393;-73
2022/12/06 06:27:35;;;;;;;6.00;4.03;;;;;;;;;;2092162;28;20083;-73
2022/12/06 06:28:54;;;;;;;7.68;4.18;;;;;;;;;;2091293;28;20052;-73
2022/12/06 06:30:13;;;;;;;4.05;3.75;;;;;;;;;;2090778;28;20032;-73
2022/12/06 06:31:32;;;;;;;4.38;3.97;;;;;;;;;;2092602;28;20497;-73
2022/12/06 06:32:51;;;;;;;4.32;3.92;;;;;;;;;;2094816;28;20496;-73
2022/12/06 06:34:10;;;;;;;4.50;4.20;;;;;;;;;;2092818;28;20100;-73
2022/12/06 06:35:29;;;;;;;4.70;4.13;;;;;;;;;;2092174;28;20118;-74
2022/12/06 06:36:48;;;;;;;4.70;4.20;;;;;;;;;;2094022;28;20036;-73
2022/12/06 06:38:07;;;;;;;5.00;4.45;;;;;;;;;;2094002;28;20473;-73
2022/12/06 06:39:26;;;;;;;4.65;3.95;;;;;;;;;;2093324;28;20143;-73
2022/12/06 06:40:45;;;;;;;5.22;3.83;;;;;;;;;;2090064;28;20032;-73
2022/12/06 06:42:04;;;;;;;7.18;4.97;;;;;;;;;;2090288;28;20574;-75
2022/12/06 06:43:23;;;;;;;6.38;4.10;;;;;;;;;;2092522;28;20107;-73
2022/12/06 06:44:43;;;;;;;8.18;4.88;;;;;;;;;;2092642;28;20715;-73
2022/12/06 06:46:05;;;;;;;5.72;4.30;;;;;;;;;;2092583;28;20032;-73
2022/12/06 06:47:24;;;;;;;12.52;4.00;;;;;;;;;;2095183;28;20029;-74
2022/12/06 06:48:43;;;;;;;8.13;4.07;;;;;;;;;;2094541;28;20478;-73
2022/12/06 06:50:01;;;;;;;7.53;4.35;;;;;;;;;;2093447;28;20036;-75
2022/12/06 06:51:21;;;;;;;4.88;4.05;;;;;;;;;;2093262;28;20024;-73
2022/12/06 06:52:39;;;;;;;5.07;4.57;;;;;;;;;;2094019;28;20833;-74
2022/12/06 06:53:59;;;;;;;3.90;3.60;;;;;;;;;;2092240;28;20033;-74
2022/12/06 06:55:19;;;;;;;5.20;4.10;;;;;;;;;;2091130;28;20231;-73
2022/12/06 06:56:38;;;;;;;3.88;3.40;;;;;;;;;;2096573;28;20020;-74
2022/12/06 06:57:57;;;;;;;3.78;3.45;;;;;;;;;;2096408;28;20036;-74
2022/12/06 06:59:16;;;;;;;4.40;4.00;;;;;;;;;;2092268;28;20036;-75
2022/12/06 07:00:35;;;;;;;4.13;3.72;;;;;;;;;;2094340;28;20446;-73
2022/12/06 07:01:54;;;;;;;4.72;3.28;;;;;;;;;;2096935;28;20028;-74
2022/12/06 07:03:14;;;;;;;3.72;3.40;;;;;;;;;;2096490;28;20025;-74
2022/12/06 07:04:33;;;;;;;3.80;3.40;;;;;;;;;;2094677;28;20025;-74
2022/12/06 07:05:56;;;;;;;3.40;3.10;;;;;;;;;;2096099;28;20068;-75
2022/12/06 07:07:15;;;;;;;;;;;;;;;;;;2096386;28;20028;-74
2022/12/06 07:08:34;;;;;;;3.72;3.20;;;;;;;;;;2097021;28;19909;-74
2022/12/06 07:09:53;;;;;;;4.93;3.22;;;;;;;;;;2095904;28;20040;-68
2022/12/06 07:11:12;;;;;;;2.92;2.72;;;;;;;;;;2097618;28;20028;-68
2022/12/06 07:12:31;;;;;;;3.67;3.38;;;;;;;;;;2097017;28;20024;-68
2022/12/06 07:13:50;;;;;;;3.72;3.42;;;;;;;;;;2097498;28;20029;-68
2022/12/06 07:15:10;;;;;;;4.95;3.40;;;;;;;;;;2095655;28;20052;-68
2022/12/06 07:16:29;;;;;;;4.50;3.38;;;;;;;;;;2096156;28;20028;-68
2022/12/06 07:17:50;;;;;;;3.50;3.20;;;;;;;;;;2092641;28;20032;-68
2022/12/06 07:19:08;;;;;;;4.60;3.60;;;;;;;;;;2094617;28;20380;-68
2022/12/06 07:20:27;;;;;;;5.38;4.03;;;;;;;;;;2096316;28;20119;-68
2022/12/06 07:21:47;;;;;;;4.68;4.15;;;;;;;;;;2097744;28;20036;-69
2022/12/06 07:23:07;;;;;;;8.93;4.32;;;;;;;;;;2096853;28;20478;-69
2022/12/06 07:24:25;;;;;;;6.32;4.30;;;;;;;;;;2096059;28;20389;-68
2022/12/06 07:25:44;;;;;;;5.05;4.25;;;;;;;;;;2096693;28;20108;-68
2022/12/06 07:27:03;;;;;;;9.30;4.93;;;;;;;;;;2097605;28;20036;-69
2022/12/06 07:28:22;;;;;;;5.25;4.75;;;;;;;;;;2096686;28;20028;-69
2022/12/06 07:29:41;;;;;;;6.00;4.70;;;;;;;;;;2096761;28;20020;-69
2022/12/06 07:31:14;;;;;;;12.85;5.35;;;;;;;;;;2096888;28;20033;-69
2022/12/06 07:32:35;;;;;;;5.15;4.07;;;;;;;;;;2096037;28;20028;-69
2022/12/06 07:33:55;;;;;;;11.38;5.72;;;;;;;;;;2093242;28;20036;-68
2022/12/06 07:35:14;;;;;;;5.75;5.20;;;;;;;;;;2094779;28;20070;-69
2022/12/06 07:36:33;;;;;;;6.28;5.20;;;;;;;;;;2093056;28;20428;-68
2022/12/06 07:37:52;;;;;;;8.15;4.82;;;;;;;;;;2094981;28;20032;-68
2022/12/06 07:39:11;;;;;;;5.28;4.65;;;;;;;;;;2094934;28;20052;-69
2022/12/06 07:40:30;;;;;;;9.52;5.40;;;;;;;;;;2093253;28;20039;-69
2022/12/06 07:45:07;;;;;;;5.93;4.88;;;;;;;;;;2091488;28;20025;-68
2022/12/06 07:46:26;;;;;;;6.40;4.57;;;;;;;;;;2095511;28;20033;-68
2022/12/06 07:47:45;;;;;;;5.38;4.85;;;;;;;;;;2095376;28;21015;-69
2022/12/06 07:49:04;;;;;;;7.78;5.10;;;;;;;;;;2095841;28;20162;-68
2022/12/06 07:50:23;;;;;;;4.97;4.57;;;;;;;;;;2093274;28;20037;-68
2022/12/06 07:51:43;;;;;;;8.27;5.28;;;;;;;;;;2095557;28;20470;-68
2022/12/06 07:53:02;;;;;;;5.10;4.60;;;;;;;;;;2096435;28;20028;-68
2022/12/06 07:54:21;;;;;;;5.18;4.60;;;;;;;;;;2096765;28;20041;-68
2022/12/06 07:55:40;;;;;;;6.72;5.32;;;;;;;;;;2096492;28;20485;-68
2022/12/06 07:56:59;;;;;;;5.03;4.57;;;;;;;;;;2093107;28;20115;-68
2022/12/06 07:58:18;;;;;;;5.28;4.78;;;;;;;;;;2095406;28;20405;-68
2022/12/06 07:59:37;;;;;;;5.18;4.68;;;;;;;;;;2093295;28;20495;-68
2022/12/06 08:00:56;;;;;;;5.43;4.70;;;;;;;;;;2093887;28;20616;-70
2022/12/06 08:02:19;;;;;;;10.55;4.88;;;;;;;;;;2097081;28;20029;-69
2022/12/06 08:03:38;;;;;;;6.18;5.28;;;;;;;;;;2097327;28;20107;-70
2022/12/06 08:04:57;;;;;;;6.80;4.97;;;;;;;;;;2096948;28;20020;-69
2022/12/06 08:06:16;;;;;;;6.55;4.50;;;;;;;;;;2095504;28;20032;-69
2022/12/06 08:07:35;;;;;;;5.82;4.55;;;;;;;;;;2097079;28;20040;-69
2022/12/06 08:08:54;;;;;;;5.40;4.57;;;;;;;;;;2095711;28;20037;-70
2022/12/06 08:10:13;;;;;;;4.57;4.15;;;;;;;;;;2095004;28;20040;-70
2022/12/06 08:11:32;;;;;;;5.75;4.03;;;;;;;;;;2094929;28;20041;-69
2022/12/06 08:12:51;;;;;;;5.40;4.43;;;;;;;;;;2096967;28;20396;-69
2022/12/06 08:14:10;;;;;;;8.20;4.60;;;;;;;;;;2096211;28;20029;-70
2022/12/06 08:15:29;;;;;;;5.75;5.15;;;;;;;;;;2092620;28;20445;-69
2022/12/06 08:16:48;;;;;;;5.53;4.38;;;;;;;;;;2093482;28;20111;-69
2022/12/06 08:18:07;;;;;;;6.47;4.88;;;;;;;;;;2093129;28;20029;-70
2022/12/06 08:19:26;;;;;;;5.00;4.50;;;;;;;;;;2095294;28;20029;-70
2022/12/06 08:20:45;;;;;;;9.85;4.50;;;;;;;;;;2093995;28;20435;-70
2022/12/06 08:22:04;;;;;;;4.95;4.50;;;;;;;;;;2096459;28;20115;-70
2022/12/06 08:23:23;;;;;;;6.68;4.38;;;;;;;;;;2096096;28;20056;-70
2022/12/06 08:24:42;;;;;;;5.55;5.05;;;;;;;;;;2095113;28;20493;-70